SXKEA LGSM-LGIK
Flight info
| Callsign | SXKEA |
|---|---|
| Flight time | 0h 20m |
| Altitude | 1000 |
| Route | DCT IRREON DCT BALLOS/N0105A020 DCT URNIL DCT |
| Aircraft | C172/L-SBDGR/C |
Departure
| Time | 2026-05-06 07:26 |
|---|---|
| Airport | Samos Airport (LGSM) |
Arrival
| Time | 2026-05-06 07:47 |
|---|---|
| Airport | Ikaria Airport (LGIK) |
| Time | Latitude | Longitude | Altitude | Speed | Heading |
|---|---|---|---|---|---|
| 2026-05-06 07:09 | 37.69033 | 26.91621 | 18 ft | 0 kts | 60° |
| 2026-05-06 07:19 | 37.69031 | 26.91627 | 18 ft | 2 kts | 138° |
| 2026-05-06 07:20 | 37.69015 | 26.91621 | 17 ft | 6 kts | 199° |
| 2026-05-06 07:20 | 37.68985 | 26.91599 | 17 ft | 4 kts | 275° |
| 2026-05-06 07:20 | 37.68998 | 26.91520 | 17 ft | 10 kts | 279° |
| 2026-05-06 07:20 | 37.68998 | 26.91432 | 17 ft | 8 kts | 251° |
| 2026-05-06 07:21 | 37.68981 | 26.91378 | 17 ft | 0 kts | 219° |
| 2026-05-06 07:21 | 37.68981 | 26.91377 | 17 ft | 1 kts | 218° |
| 2026-05-06 07:21 | 37.68941 | 26.91368 | 17 ft | 8 kts | 187° |
| 2026-05-06 07:21 | 37.68909 | 26.91312 | 17 ft | 9 kts | 273° |
| 2026-05-06 07:22 | 37.68916 | 26.91195 | 17 ft | 14 kts | 273° |
| 2026-05-06 07:22 | 37.68924 | 26.91062 | 17 ft | 15 kts | 274° |
| 2026-05-06 07:22 | 37.68933 | 26.90898 | 17 ft | 21 kts | 273° |
| 2026-05-06 07:22 | 37.68944 | 26.90713 | 17 ft | 20 kts | 274° |
| 2026-05-06 07:23 | 37.68955 | 26.90541 | 17 ft | 19 kts | 274° |
| 2026-05-06 07:23 | 37.68964 | 26.90383 | 18 ft | 16 kts | 274° |
| 2026-05-06 07:23 | 37.68972 | 26.90243 | 19 ft | 15 kts | 274° |
| 2026-05-06 07:23 | 37.68985 | 26.90154 | 20 ft | 5 kts | 224° |
| 2026-05-06 07:24 | 37.68976 | 26.90183 | 20 ft | 0 kts | 93° |
| 2026-05-06 07:25 | 37.68969 | 26.90301 | 19 ft | 33 kts | 94° |
| 2026-05-06 07:25 | 37.68942 | 26.90781 | 41 ft | 69 kts | 94° |
| 2026-05-06 07:25 | 37.68900 | 26.91400 | 201 ft | 71 kts | 94° |
| 2026-05-06 07:25 | 37.68879 | 26.92001 | 398 ft | 67 kts | 95° |
| 2026-05-06 07:26 | 37.68820 | 26.92591 | 570 ft | 68 kts | 95° |
| 2026-05-06 07:26 | 37.68764 | 26.93170 | 761 ft | 65 kts | 92° |
| 2026-05-06 07:26 | 37.68722 | 26.93758 | 925 ft | 67 kts | 90° |
| 2026-05-06 07:26 | 37.68549 | 26.94335 | 983 ft | 77 kts | 130° |
| 2026-05-06 07:27 | 37.68061 | 26.94607 | 971 ft | 79 kts | 175° |
| 2026-05-06 07:27 | 37.67513 | 26.94444 | 962 ft | 83 kts | 195° |
| 2026-05-06 07:27 | 37.67077 | 26.93962 | 955 ft | 85 kts | 252° |
| 2026-05-06 07:27 | 37.67137 | 26.93239 | 923 ft | 83 kts | 281° |
| 2026-05-06 07:28 | 37.67176 | 26.92527 | 896 ft | 83 kts | 261° |
| 2026-05-06 07:28 | 37.66980 | 26.91866 | 932 ft | 82 kts | 235° |
| 2026-05-06 07:28 | 37.65908 | 26.91161 | 990 ft | 96 kts | 189° |
| 2026-05-06 07:29 | 37.65255 | 26.91055 | 983 ft | 92 kts | 181° |
| 2026-05-06 07:29 | 37.64617 | 26.90988 | 982 ft | 90 kts | 184° |
| 2026-05-06 07:29 | 37.64018 | 26.90676 | 986 ft | 97 kts | 221° |
| 2026-05-06 07:29 | 37.63719 | 26.89961 | 983 ft | 92 kts | 263° |
| 2026-05-06 07:30 | 37.63641 | 26.89172 | 983 ft | 89 kts | 265° |
| 2026-05-06 07:30 | 37.63555 | 26.88375 | 988 ft | 93 kts | 263° |
| 2026-05-06 07:30 | 37.63499 | 26.87535 | 988 ft | 96 kts | 268° |
| 2026-05-06 07:30 | 37.63459 | 26.86678 | 988 ft | 98 kts | 268° |
| 2026-05-06 07:31 | 37.63443 | 26.85814 | 988 ft | 99 kts | 272° |
| 2026-05-06 07:31 | 37.63482 | 26.84948 | 987 ft | 99 kts | 276° |
| 2026-05-06 07:31 | 37.63541 | 26.84069 | 987 ft | 100 kts | 277° |
| 2026-05-06 07:31 | 37.63604 | 26.83166 | 984 ft | 105 kts | 277° |
| 2026-05-06 07:32 | 37.63664 | 26.82240 | 982 ft | 104 kts | 279° |
| 2026-05-06 07:32 | 37.63761 | 26.81345 | 982 ft | 100 kts | 281° |
| 2026-05-06 07:32 | 37.63900 | 26.80508 | 1009 ft | 94 kts | 293° |
| 2026-05-06 07:32 | 37.64114 | 26.79733 | 1003 ft | 96 kts | 286° |
| 2026-05-06 07:33 | 37.64244 | 26.78885 | 1006 ft | 99 kts | 276° |
| 2026-05-06 07:33 | 37.64263 | 26.77988 | 1004 ft | 102 kts | 274° |
| 2026-05-06 07:33 | 37.64298 | 26.77091 | 1006 ft | 103 kts | 274° |
| 2026-05-06 07:33 | 37.64334 | 26.76178 | 1006 ft | 104 kts | 274° |
| 2026-05-06 07:34 | 37.64426 | 26.75256 | 1054 ft | 107 kts | 283° |
| 2026-05-06 07:34 | 37.64586 | 26.74365 | 1239 ft | 102 kts | 287° |
| 2026-05-06 07:34 | 37.64741 | 26.73513 | 1434 ft | 98 kts | 287° |
| 2026-05-06 07:34 | 37.64882 | 26.72691 | 1628 ft | 95 kts | 287° |
| 2026-05-06 07:35 | 37.65031 | 26.71890 | 1799 ft | 95 kts | 289° |
| 2026-05-06 07:35 | 37.65171 | 26.71067 | 1941 ft | 98 kts | 283° |
| 2026-05-06 07:35 | 37.65279 | 26.70171 | 1986 ft | 108 kts | 286° |
| 2026-05-06 07:35 | 37.65450 | 26.69228 | 1980 ft | 108 kts | 290° |
| 2026-05-06 07:36 | 37.65618 | 26.68306 | 1985 ft | 107 kts | 290° |
| 2026-05-06 07:36 | 37.65805 | 26.67390 | 1991 ft | 109 kts | 287° |
| 2026-05-06 07:36 | 37.65994 | 26.66447 | 1991 ft | 110 kts | 292° |
| 2026-05-06 07:36 | 37.66161 | 26.65505 | 1994 ft | 111 kts | 287° |
| 2026-05-06 07:37 | 37.66338 | 26.64545 | 1995 ft | 111 kts | 288° |
| 2026-05-06 07:37 | 37.66486 | 26.63584 | 1987 ft | 113 kts | 287° |
| 2026-05-06 07:37 | 37.66652 | 26.62617 | 1986 ft | 112 kts | 288° |
| 2026-05-06 07:37 | 37.66842 | 26.61682 | 1997 ft | 109 kts | 293° |
| 2026-05-06 07:38 | 37.67027 | 26.60765 | 2000 ft | 107 kts | 287° |
| 2026-05-06 07:38 | 37.67185 | 26.59839 | 1999 ft | 105 kts | 287° |
| 2026-05-06 07:38 | 37.67340 | 26.58952 | 1998 ft | 100 kts | 289° |
| 2026-05-06 07:38 | 37.67483 | 26.58131 | 1997 ft | 95 kts | 289° |
| 2026-05-06 07:39 | 37.67626 | 26.57315 | 1993 ft | 96 kts | 288° |
| 2026-05-06 07:39 | 37.67774 | 26.56497 | 1992 ft | 96 kts | 288° |
| 2026-05-06 07:39 | 37.67929 | 26.55671 | 1983 ft | 97 kts | 289° |
| 2026-05-06 07:39 | 37.68087 | 26.54828 | 1976 ft | 98 kts | 289° |
| 2026-05-06 07:40 | 37.68268 | 26.53986 | 1970 ft | 100 kts | 290° |
| 2026-05-06 07:40 | 37.68413 | 26.53119 | 1968 ft | 102 kts | 280° |
| 2026-05-06 07:40 | 37.68382 | 26.52214 | 1968 ft | 102 kts | 268° |
| 2026-05-06 07:40 | 37.68360 | 26.51309 | 1968 ft | 102 kts | 278° |
| 2026-05-06 07:41 | 37.68422 | 26.50453 | 1957 ft | 92 kts | 277° |
| 2026-05-06 07:41 | 37.68394 | 26.49679 | 1957 ft | 86 kts | 276° |
| 2026-05-06 07:41 | 37.68413 | 26.48936 | 1965 ft | 84 kts | 283° |
| 2026-05-06 07:41 | 37.68560 | 26.48176 | 1973 ft | 94 kts | 294° |
| 2026-05-06 07:42 | 37.68760 | 26.47349 | 1965 ft | 97 kts | 295° |
| 2026-05-06 07:42 | 37.68951 | 26.46541 | 1968 ft | 93 kts | 292° |
| 2026-05-06 07:42 | 37.69076 | 26.45754 | 1978 ft | 92 kts | 283° |
| 2026-05-06 07:42 | 37.69121 | 26.44938 | 1975 ft | 93 kts | 277° |
| 2026-05-06 07:43 | 37.69149 | 26.44121 | 1966 ft | 93 kts | 277° |
| 2026-05-06 07:43 | 37.69062 | 26.43317 | 1943 ft | 93 kts | 257° |
| 2026-05-06 07:43 | 37.68847 | 26.42518 | 1791 ft | 96 kts | 252° |
| 2026-05-06 07:43 | 37.68621 | 26.41782 | 1616 ft | 89 kts | 248° |
| 2026-05-06 07:44 | 37.68363 | 26.41092 | 1473 ft | 86 kts | 246° |
| 2026-05-06 07:44 | 37.68109 | 26.40415 | 1344 ft | 83 kts | 247° |
| 2026-05-06 07:44 | 37.67867 | 26.39764 | 1218 ft | 82 kts | 247° |
| 2026-05-06 07:44 | 37.67622 | 26.39115 | 1104 ft | 81 kts | 245° |
| 2026-05-06 07:45 | 37.67381 | 26.38514 | 1124 ft | 77 kts | 245° |
| 2026-05-06 07:45 | 37.67160 | 26.37873 | 1100 ft | 82 kts | 247° |
| 2026-05-06 07:45 | 37.66934 | 26.37247 | 1066 ft | 78 kts | 245° |
| 2026-05-06 07:45 | 37.66700 | 26.36637 | 994 ft | 76 kts | 244° |
| 2026-05-06 07:46 | 37.66642 | 26.35995 | 864 ft | 76 kts | 294° |
| 2026-05-06 07:46 | 37.66989 | 26.35543 | 661 ft | 73 kts | 338° |
| 2026-05-06 07:46 | 37.67454 | 26.35256 | 341 ft | 83 kts | 337° |
| 2026-05-06 07:46 | 37.67960 | 26.34920 | 117 ft | 72 kts | 332° |
| 2026-05-06 07:47 | 37.68287 | 26.34699 | 113 ft | 32 kts | 332° |
| 2026-05-06 07:47 | 37.68328 | 26.34634 | 110 ft | 4 kts | 275° |
| 2026-05-06 07:47 | 37.68335 | 26.34585 | 108 ft | 6 kts | 280° |
| 2026-05-06 07:47 | 37.68336 | 26.34540 | 106 ft | 2 kts | 246° |
| 2026-05-06 07:48 | 37.68328 | 26.34518 | 106 ft | 1 kts | 246° |
| 2026-05-06 07:48 | 37.68322 | 26.34498 | 105 ft | 2 kts | 245° |
| 2026-05-06 07:48 | 37.68303 | 26.34490 | 106 ft | 2 kts | 132° |
| 2026-05-06 07:48 | 37.68301 | 26.34495 | 106 ft | 0 kts | 60° |